Time;durP1;ratioP1;P1;durP2;ratioP2;P2;SDS_P1;SDS_P2;PMS_P1;PMS_P2;Temp;Humidity;BMP_temperature;BMP_pressure;BME280_temperature;BME280_humidity;BME280_pressure;Samples;Min_cycle;Max_cycle;Signal;HPM_P1;HPM_P2
2022/11/01 00:01:39;;;;;;;2.70;1.35;;;;;;;15.23;100.00;100973.47;10586364;27;20473;-78
2022/11/01 00:06:41;;;;;;;1.00;0.65;;;;;;;15.13;100.00;100964.72;10614454;27;20031;-78
2022/11/01 00:11:42;;;;;;;2.55;1.88;;;;;;;15.27;100.00;100966.56;10599327;27;20069;-79
2022/11/01 00:16:45;;;;;;;0.40;0.30;;;;;;;15.28;100.00;100956.19;10598747;27;20054;-78
2022/11/01 00:21:47;;;;;;;0.70;0.43;;;;;;;15.33;100.00;100954.50;10613253;27;20553;-79
2022/11/01 00:26:49;;;;;;;1.02;0.93;;;;;;;15.22;100.00;100951.84;10593379;27;20041;-77
2022/11/01 00:31:50;;;;;;;0.10;0.10;;;;;;;15.16;100.00;100946.56;10589579;27;20047;-78
2022/11/01 00:36:52;;;;;;;1.27;0.65;;;;;;;15.22;100.00;100935.38;10601719;27;20759;-78
2022/11/01 00:41:53;;;;;;;0.32;0.32;;;;;;;15.18;100.00;100929.31;10594750;27;20476;-78
2022/11/01 00:46:55;;;;;;;0.85;0.43;;;;;;;15.10;100.00;100920.59;10621165;27;20114;-78
2022/11/01 00:51:56;;;;;;;0.10;0.10;;;;;;;15.05;100.00;100923.13;10620887;27;20058;-78
2022/11/01 00:56:58;;;;;;;0.80;0.43;;;;;;;15.13;100.00;100919.72;10608806;27;20063;-79
2022/11/01 01:01:59;;;;;;;4.50;0.85;;;;;;;15.18;100.00;100898.16;10633414;27;20047;-78
2022/11/01 01:07:01;;;;;;;3.72;0.88;;;;;;;15.20;100.00;100901.63;10619159;27;20550;-79
2022/11/01 01:12:03;;;;;;;0.75;0.45;;;;;;;15.19;100.00;100896.44;10612396;27;20053;-79
2022/11/01 01:17:05;;;;;;;0.20;0.20;;;;;;;15.19;100.00;100892.13;10614168;27;20039;-79
2022/11/01 01:28:55;;;;;;;1.33;0.50;;;;;;;15.17;100.00;100901.59;10597270;27;20039;-79
2022/11/01 01:33:57;;;;;;;0.13;0.13;;;;;;;15.23;100.00;100896.44;10608931;27;20087;-79
2022/11/01 01:38:58;;;;;;;0.63;0.43;;;;;;;15.24;100.00;100905.13;10617338;27;20066;-79
2022/11/01 01:44:02;;;;;;;1.27;0.65;;;;;;;15.29;100.00;100899.97;10601055;28;20114;-79
2022/11/01 01:49:04;;;;;;;0.35;0.35;;;;;;;15.01;100.00;100920.50;10605076;28;20092;-78
2022/11/01 01:54:05;;;;;;;0.30;0.25;;;;;;;14.74;100.00;100941.03;10603241;28;20063;-78
2022/11/01 01:59:09;;;;;;;0.40;0.40;;;;;;;14.74;100.00;100954.00;10622870;28;20044;-78
2022/11/01 02:04:18;;;;;;;19.10;0.90;;;;;;;14.79;100.00;100959.22;10604712;28;20543;-79
2022/11/01 02:09:20;;;;;;;0.17;0.17;;;;;;;14.88;100.00;100948.09;10589950;27;20047;-79
2022/11/01 02:14:24;;;;;;;0.35;0.30;;;;;;;14.81;100.00;100936.78;10613301;27;20126;-80
2022/11/01 02:20:03;;;;;;;0.20;0.20;;;;;;;14.84;100.00;100939.41;10595954;27;20039;-79
2022/11/01 02:25:29;;;;;;;0.73;0.40;;;;;;;14.97;100.00;100923.94;10606711;27;20078;-79
2022/11/01 02:30:44;;;;;;;1.10;0.55;;;;;;;15.05;100.00;100923.13;10592905;27;20071;-79
2022/11/01 02:36:07;;;;;;;0.10;0.10;;;;;;;15.18;100.00;100929.31;10618183;27;20047;-79
2022/11/01 02:41:26;;;;;;;0.00;0.00;;;;;;;15.15;100.00;100913.69;10605397;27;20494;-79
2022/11/01 02:47:00;;;;;;;0.57;0.30;;;;;;;15.13;100.00;100915.44;10612310;27;20081;-78
2022/11/01 02:52:04;;;;;;;0.60;0.32;;;;;;;15.20;100.00;100922.41;10607511;27;20099;-79
2022/11/01 02:57:16;;;;;;;2.55;0.55;;;;;;;15.05;100.00;100927.47;10599466;27;20130;-78
2022/11/01 03:02:38;;;;;;;1.30;0.60;;;;;;;15.04;100.00;100933.53;10583201;27;20138;-79
2022/11/01 03:07:43;;;;;;;1.40;0.98;;;;;;;15.01;100.00;100928.28;10624233;27;20091;-79
2022/11/01 03:13:28;;;;;;;0.80;0.50;;;;;;;14.86;100.00;100936.81;10611537;27;20071;-79
2022/11/01 03:18:35;;;;;;;1.55;0.68;;;;;;;14.97;100.00;100935.19;10480976;28;20071;-78
2022/11/01 03:23:48;;;;;;;1.27;0.85;;;;;;;14.93;100.00;100937.75;10594466;27;20126;-79
2022/11/01 03:28:55;;;;;;;1.35;0.85;;;;;;;14.94;100.00;100939.47;10603559;27;20067;-80
2022/11/01 03:34:01;;;;;;;0.70;0.40;;;;;;;15.01;100.00;100941.25;10611084;27;20069;-80
2022/11/01 03:39:12;;;;;;;0.47;0.28;;;;;;;14.90;100.00;100944.66;10628036;27;20055;-78
2022/11/01 03:44:14;;;;;;;0.13;0.13;;;;;;;14.88;100.00;100964.50;10582675;27;20126;-78
2022/11/01 03:49:17;;;;;;;0.38;0.30;;;;;;;14.80;100.00;100970.50;10610038;27;20126;-78
2022/11/01 03:54:18;;;;;;;0.22;0.22;;;;;;;14.78;100.00;100975.66;10628323;27;20043;-79
2022/11/01 03:59:22;;;;;;;0.60;0.55;;;;;;;14.84;100.00;100970.53;10592385;27;20063;-78
2022/11/01 04:04:23;;;;;;;0.90;0.70;;;;;;;14.93;100.00;100981.88;10604348;27;20462;-79
2022/11/01 04:09:25;;;;;;;0.35;0.10;;;;;;;14.80;100.00;100984.31;10621945;27;20444;-79
2022/11/01 04:25:06;;;;;;;;;;;;;;;14.82;100.00;101008.56;10632791;27;20072;-79
2022/11/01 04:30:08;;;;;;;0.00;0.00;;;;;;;14.95;100.00;101013.84;10626358;27;19920;-79
2022/11/01 04:35:12;;;;;;;0.68;0.05;;;;;;;15.07;100.00;101014.84;10624961;27;20049;-79
2022/11/01 04:40:14;;;;;;;0.32;0.22;;;;;;;15.06;100.00;101022.63;10607063;27;20055;-79
2022/11/01 04:45:15;;;;;;;1.13;0.85;;;;;;;15.10;100.00;101034.75;10607421;27;20070;-79
2022/11/01 04:50:19;;;;;;;0.50;0.20;;;;;;;15.17;100.00;101046.94;10589371;27;20070;-79
2022/11/01 04:55:20;;;;;;;0.60;0.55;;;;;;;15.33;100.00;101049.66;10606994;27;20036;-79
2022/11/01 05:00:22;;;;;;;0.93;0.50;;;;;;;15.57;100.00;101050.72;10625313;27;20043;-79
2022/11/01 05:05:23;;;;;;;0.35;0.25;;;;;;;15.73;100.00;101062.97;10607027;27;20078;-79
2022/11/01 05:10:25;;;;;;;0.10;0.10;;;;;;;15.90;100.00;101031.94;10625104;27;20045;-78
2022/11/01 05:15:27;;;;;;;0.43;0.30;;;;;;;15.74;100.00;100985.91;10606384;27;20047;-78
2022/11/01 05:20:32;;;;;;;0.00;0.00;;;;;;;15.48;100.00;100990.09;10592330;27;20070;-79
2022/11/01 05:25:50;;;;;;;0.00;0.00;;;;;;;15.32;100.00;100993.41;10586433;27;20043;-78
2022/11/01 05:30:51;;;;;;;0.10;0.10;;;;;;;15.41;100.00;101009.06;10604787;27;20126;-78
2022/11/01 05:35:53;;;;;;;0.03;0.03;;;;;;;15.27;100.00;101031.44;10603016;27;20043;-78
2022/11/01 05:40:55;;;;;;;0.20;0.20;;;;;;;15.07;100.00;101026.97;10623927;27;20149;-79
2022/11/01 05:45:56;;;;;;;1.65;0.32;;;;;;;14.95;100.00;101039.78;10600011;27;20842;-79
2022/11/01 05:50:58;;;;;;;0.00;0.00;;;;;;;14.78;100.00;101053.44;10606252;28;20383;-79
2022/11/01 05:55:59;;;;;;;0.00;0.00;;;;;;;14.64;100.00;101065.34;10623971;28;20073;-78
2022/11/01 06:01:04;;;;;;;0.03;0.00;;;;;;;14.30;100.00;101075.31;10616707;28;20074;-79
2022/11/01 06:06:06;;;;;;;0.00;0.00;;;;;;;14.10;100.00;101086.28;10591701;28;20409;-79
2022/11/01 06:11:08;;;;;;;0.00;0.00;;;;;;;14.13;100.00;101094.09;10606048;28;20635;-79
2022/11/01 06:16:10;;;;;;;0.10;0.00;;;;;;;13.94;100.00;101101.59;10605879;28;20038;-79
2022/11/01 06:21:11;;;;;;;0.00;0.00;;;;;;;13.88;100.00;101104.13;10604435;28;20043;-79
2022/11/01 06:26:13;;;;;;;0.47;0.25;;;;;;;13.85;100.00;101124.78;10622015;28;20118;-78
2022/11/01 06:31:15;;;;;;;0.00;0.00;;;;;;;13.60;100.00;101133.84;10585045;28;20081;-80
2022/11/01 06:36:16;;;;;;;0.43;0.15;;;;;;;13.58;100.00;101144.19;10605394;28;20498;-79
2022/11/01 06:41:18;;;;;;;0.00;0.00;;;;;;;13.51;100.00;101157.88;10619226;28;20040;-79
2022/11/01 06:46:19;;;;;;;1.65;0.00;;;;;;;13.50;100.00;101158.72;10615099;28;20054;-79
2022/11/01 06:51:21;;;;;;;0.57;0.30;;;;;;;13.29;100.00;101165.19;10589638;28;20084;-80
2022/11/01 06:56:23;;;;;;;1.35;0.80;;;;;;;13.12;100.00;101176.94;10610321;27;20058;-79
2022/11/01 07:01:25;;;;;;;0.00;0.00;;;;;;;13.14;100.00;101196.81;10614991;27;20051;-79
2022/11/01 07:06:29;;;;;;;1.27;0.28;;;;;;;13.25;100.00;101209.97;10633001;27;20080;-79
2022/11/01 07:11:36;;;;;;;0.00;0.00;;;;;;;13.27;100.00;101212.56;10602962;27;20039;-79
2022/11/01 07:16:37;;;;;;;0.00;0.00;;;;;;;13.34;100.00;101222.19;10606118;27;20063;-79
2022/11/01 07:21:39;;;;;;;0.00;0.00;;;;;;;13.31;100.00;101220.44;10610880;27;20455;-78
2022/11/01 07:26:44;;;;;;;0.20;0.00;;;;;;;13.27;100.00;101228.09;10606639;27;20134;-79
2022/11/01 07:31:46;;;;;;;0.00;0.00;;;;;;;13.42;100.00;101237.94;10604629;27;20494;-79
2022/11/01 07:36:51;;;;;;;0.00;0.00;;;;;;;13.41;100.00;101228.41;10618050;27;20059;-79
2022/11/01 07:41:53;;;;;;;0.00;0.00;;;;;;;13.47;100.00;101246.63;10605572;27;20050;-79
2022/11/01 07:46:54;;;;;;;0.00;0.00;;;;;;;13.66;100.00;101262.53;10593862;27;20053;-79
2022/11/01 07:51:56;;;;;;;0.00;0.00;;;;;;;14.01;100.00;101268.34;10606030;27;20066;-78
2022/11/01 07:57:03;;;;;;;0.00;0.00;;;;;;;14.12;100.00;101276.31;10614795;27;20410;-78
2022/11/01 08:02:04;;;;;;;0.00;0.00;;;;;;;14.08;100.00;101280.56;10620088;27;20142;-79
2022/11/01 08:07:08;;;;;;;0.00;0.00;;;;;;;14.21;100.00;101288.56;10615916;27;20478;-79
2022/11/01 08:12:10;;;;;;;0.10;0.10;;;;;;;14.31;100.00;101295.63;10604655;27;20243;-79
2022/11/01 08:17:11;;;;;;;0.25;0.20;;;;;;;14.30;100.00;101298.22;10607764;27;20498;-79
2022/11/01 08:22:13;;;;;;;0.20;0.15;;;;;;;14.21;100.00;101298.94;10615003;27;20065;-79
2022/11/01 08:27:14;;;;;;;2.75;0.65;;;;;;;14.32;100.00;101310.34;10586904;27;20070;-78
2022/11/01 08:32:21;;;;;;;0.00;0.00;;;;;;;14.31;100.00;101316.38;10602990;27;20383;-78
2022/11/01 08:37:23;;;;;;;0.20;0.10;;;;;;;14.46;100.00;101315.75;10605817;27;20064;-79
2022/11/01 08:42:24;;;;;;;0.15;0.15;;;;;;;14.17;100.00;101326.50;10601547;27;20050;-78
2022/11/01 08:47:26;;;;;;;0.00;0.00;;;;;;;14.41;100.00;101332.94;10604365;27;20494;-79
2022/11/01 08:52:27;;;;;;;0.00;0.00;;;;;;;14.08;100.00;101334.97;10599609;27;20121;-79
2022/11/01 08:57:29;;;;;;;0.08;0.08;;;;;;;14.21;100.00;101336.06;10600526;27;20038;-79
2022/11/01 09:02:32;;;;;;;0.00;0.00;;;;;;;14.43;100.00;101357.19;10614865;27;20122;-79
2022/11/01 09:07:35;;;;;;;0.00;0.00;;;;;;;14.04;100.00;101345.25;10597156;27;20051;-77
2022/11/01 09:12:38;;;;;;;0.00;0.00;;;;;;;14.06;100.00;101359.09;10618557;27;20044;-79
2022/11/01 09:17:41;;;;;;;0.00;0.00;;;;;;;14.12;100.00;101359.22;10598733;27;20043;-79
2022/11/01 09:22:42;;;;;;;0.00;0.00;;;;;;;13.93;100.00;101371.84;10602869;27;20043;-78
2022/11/01 09:27:44;;;;;;;0.47;0.20;;;;;;;13.93;100.00;101351.09;10585741;27;20082;-79
2022/11/01 09:32:45;;;;;;;0.73;0.30;;;;;;;14.12;100.00;101375.66;10570090;27;20483;-79
2022/11/01 09:37:47;;;;;;;0.60;0.40;;;;;;;14.18;100.00;101392.16;10602174;27;20053;-80
2022/11/01 09:42:49;;;;;;;2.78;0.85;;;;;;;14.04;100.00;101391.88;10600965;27;20110;-79
2022/11/01 09:47:53;;;;;;;1.00;0.30;;;;;;;14.18;100.00;101392.16;10621862;28;20073;-79
2022/11/01 09:52:56;;;;;;;25.38;1.95;;;;;;;14.46;100.00;101398.72;10599861;28;20075;-79
2022/11/01 09:58:10;;;;;;;0.00;0.00;;;;;;;14.90;100.00;101390.84;10603624;28;20042;-79
2022/11/01 10:03:36;;;;;;;0.45;0.35;;;;;;;14.99;100.00;101399.63;10599170;28;20130;-80
2022/11/01 10:09:00;;;;;;;0.00;0.00;;;;;;;15.35;100.00;101401.00;10608882;28;20071;-79
2022/11/01 10:14:29;;;;;;;0.00;0.00;;;;;;;15.44;100.00;101413.25;10620158;28;20047;-80
2022/11/01 10:19:34;;;;;;;0.98;0.85;;;;;;;15.41;100.00;101413.22;10602298;28;20132;-81
2022/11/01 10:24:51;;;;;;;0.20;0.13;;;;;;;15.58;100.00;101410.84;10620919;28;20491;-79
2022/11/01 10:30:03;;;;;;;0.00;0.00;;;;;;;16.10;100.00;101434.03;10585360;27;20076;-78
2022/11/01 10:35:13;;;;;;;0.13;0.13;;;;;;;16.06;100.00;101430.50;10604281;27;20066;-79
2022/11/01 10:40:22;;;;;;;0.05;0.05;;;;;;;15.57;100.00;101437.66;10608869;27;20318;-79
2022/11/01 10:45:24;;;;;;;0.43;0.20;;;;;;;15.86;100.00;101444.16;10598546;27;20039;-79
2022/11/01 10:50:28;;;;;;;0.40;0.32;;;;;;;15.80;100.00;101449.25;10611618;27;20081;-79
2022/11/01 10:55:49;;;;;;;0.45;0.20;;;;;;;15.91;100.00;101467.59;10609512;27;20036;-79
2022/11/01 11:00:52;;;;;;;0.00;0.00;;;;;;;16.09;100.00;101469.56;10602491;27;20452;-78
2022/11/01 11:05:56;;;;;;;0.03;0.03;;;;;;;16.23;100.00;101468.84;10588628;27;20455;-79
2022/11/01 11:11:03;;;;;;;0.20;0.20;;;;;;;15.94;100.00;101456.38;10629604;27;20039;-80
2022/11/01 11:16:13;;;;;;;0.03;0.03;;;;;;;16.16;100.00;101449.69;10593225;27;20078;-79
2022/11/01 11:21:15;;;;;;;;;;;;;;;16.12;100.00;101456.56;10590297;27;20085;-79
2022/11/01 11:26:18;;;;;;;0.20;0.03;;;;;;;15.91;100.00;101456.31;10607658;27;20026;-79
2022/11/01 11:31:27;;;;;;;0.40;0.25;;;;;;;16.11;100.00;101449.66;10607016;27;20050;-80
2022/11/01 11:36:32;;;;;;;0.13;0.13;;;;;;;16.19;100.00;101462.72;10633615;27;20043;-80
2022/11/01 11:41:35;;;;;;;0.25;0.15;;;;;;;15.97;100.00;101467.66;10612481;27;20069;-80
2022/11/01 11:46:48;;;;;;;0.20;0.20;;;;;;;16.20;100.00;101469.69;10630240;27;20063;-80
2022/11/01 11:51:51;;;;;;;1.23;0.30;;;;;;;16.14;100.00;101465.28;10611112;27;20039;-79
2022/11/01 11:57:10;;;;;;;0.00;0.00;;;;;;;16.10;100.00;101466.09;10611451;27;20444;-78
2022/11/01 12:02:26;;;;;;;0.00;0.00;;;;;;;16.72;100.00;101463.28;10591750;27;20080;-79
2022/11/01 12:07:44;;;;;;;0.50;0.30;;;;;;;16.68;100.00;101462.38;10632874;27;20039;-78
2022/11/01 12:12:51;;;;;;;0.00;0.00;;;;;;;16.73;100.00;101467.63;10617712;27;20051;-78
2022/11/01 12:17:53;;;;;;;0.30;0.30;;;;;;;16.53;100.00;101462.22;10599053;27;20039;-78
2022/11/01 12:23:25;;;;;;;5.50;0.47;;;;;;;16.35;100.00;101455.97;10603169;27;20521;-79
2022/11/01 12:28:36;;;;;;;24.65;0.63;;;;;;;16.32;100.00;101455.94;10603949;27;20043;-79
2022/11/01 12:34:05;;;;;;;0.08;0.08;;;;;;;16.63;100.00;101456.28;10607448;27;20134;-78
2022/11/01 12:39:22;;;;;;;0.05;0.05;;;;;;;16.56;100.00;101457.06;10615696;27;20047;-79
2022/11/01 12:44:40;;;;;;;0.57;0.32;;;;;;;16.79;100.00;101458.13;10623009;27;20512;-79
2022/11/01 12:49:47;;;;;;;1.30;0.05;;;;;;;16.24;100.00;101465.38;10617735;27;20039;-79
2022/11/01 12:55:17;;;;;;;0.00;0.00;;;;;;;16.29;100.00;101463.69;10605353;27;20453;-79
2022/11/01 13:00:25;;;;;;;0.00;0.00;;;;;;;16.54;100.00;101469.19;10570028;27;20513;-79
2022/11/01 13:06:07;;;;;;;0.08;0.08;;;;;;;16.49;100.00;101462.19;10593146;27;20051;-79
2022/11/01 13:11:41;;;;;;;0.22;0.20;;;;;;;16.22;100.00;101456.69;10590987;27;20134;-80
2022/11/01 13:17:17;;;;;;;7.88;0.20;;;;;;;16.29;100.00;101464.59;10585610;27;20134;-76
2022/11/01 13:23:07;;;;;;;0.10;0.10;;;;;;;16.18;100.00;101456.69;10585281;27;20129;-77
2022/11/01 13:28:17;;;;;;;1.20;0.40;;;;;;;16.46;100.00;101445.69;10603208;27;20129;-75
2022/11/01 13:33:37;;;;;;;0.00;0.00;;;;;;;16.16;100.00;101452.28;10624898;27;20067;-76
2022/11/01 13:38:56;;;;;;;1.02;0.75;;;;;;;16.55;100.00;101444.91;10624838;27;20042;-77
2022/11/01 13:44:05;;;;;;;0.00;0.00;;;;;;;16.24;100.00;101449.78;10624702;27;20054;-77
2022/11/01 13:49:36;;;;;;;0.00;0.00;;;;;;;16.07;100.00;101442.66;10589172;28;20045;-75
2022/11/01 13:54:54;;;;;;;0.00;0.00;;;;;;;15.76;100.00;101442.25;10590897;28;20478;-78
2022/11/01 13:59:58;;;;;;;0.00;0.00;;;;;;;15.95;100.00;101450.31;10623717;28;20050;-75
2022/11/01 14:05:08;;;;;;;0.65;0.10;;;;;;;15.89;100.00;101463.25;10624551;27;20043;-77
2022/11/01 14:10:30;;;;;;;0.13;0.10;;;;;;;15.86;100.00;101448.50;10590127;28;20063;-75
2022/11/01 14:15:57;;;;;;;0.00;0.00;;;;;;;15.75;100.00;101450.88;10590228;28;20036;-76
2022/11/01 14:21:27;;;;;;;0.08;0.00;;;;;;;15.93;100.00;101441.63;10631074;27;20063;-76
2022/11/01 14:26:36;;;;;;;0.25;0.25;;;;;;;15.58;100.00;101439.41;10613661;27;20051;-76
2022/11/01 14:31:39;;;;;;;0.00;0.00;;;;;;;15.47;100.00;101434.94;10596914;27;20096;-75
2022/11/01 14:36:43;;;;;;;0.00;0.00;;;;;;;15.65;100.00;101438.66;10623975;27;20122;-76
2022/11/01 14:41:47;;;;;;;3.47;0.10;;;;;;;15.37;100.00;101446.06;10609496;27;20458;-76
2022/11/01 14:46:58;;;;;;;0.10;0.10;;;;;;;15.35;100.00;101451.19;10589221;27;20043;-76
2022/11/01 14:52:30;;;;;;;0.47;0.35;;;;;;;15.27;100.00;101467.53;10612467;27;20061;-75
2022/11/01 14:57:33;;;;;;;0.00;0.00;;;;;;;15.18;100.00;101453.53;10630491;27;20070;-76
2022/11/01 15:02:35;;;;;;;0.32;0.05;;;;;;;15.03;100.00;101461.09;10612301;27;20095;-75
2022/11/01 15:07:39;;;;;;;0.03;0.03;;;;;;;15.01;100.00;101465.38;10612505;27;20043;-76
2022/11/01 15:12:49;;;;;;;0.10;0.10;;;;;;;14.88;100.00;101465.16;10594833;27;20571;-76
2022/11/01 15:17:55;;;;;;;0.00;0.00;;;;;;;14.81;100.00;101463.31;10584377;27;20044;-75
2022/11/01 15:22:57;;;;;;;0.10;0.10;;;;;;;14.56;100.00;101455.06;10628552;27;20074;-75
2022/11/01 15:27:59;;;;;;;1.90;0.63;;;;;;;14.57;100.00;101450.75;10610754;27;20047;-75
2022/11/01 15:33:33;;;;;;;0.00;0.00;;;;;;;14.48;100.00;101448.88;10614680;27;20130;-76
2022/11/01 15:38:51;;;;;;;1.55;0.25;;;;;;;14.47;100.00;101452.31;10464586;27;20438;-76
2022/11/01 15:43:54;;;;;;;14.80;2.92;;;;;;;14.30;100.00;101453.72;10573652;27;20129;-78
2022/11/01 15:48:59;;;;;;;1.25;0.75;;;;;;;14.10;100.00;101456.78;10614995;27;20491;-76
2022/11/01 15:54:23;;;;;;;0.00;0.00;;;;;;;14.09;100.00;101458.50;10610414;27;20078;-77
2022/11/01 15:59:41;;;;;;;0.00;0.00;;;;;;;13.92;100.00;101463.34;10628898;27;20505;-77
2022/11/01 16:04:45;;;;;;;0.00;0.00;;;;;;;13.49;100.00;101462.41;10627801;27;20070;-77
2022/11/01 16:09:52;;;;;;;0.00;0.00;;;;;;;13.53;100.00;101461.59;10628047;27;20074;-75
2022/11/01 16:14:57;;;;;;;0.00;0.00;;;;;;;13.51;100.00;101455.53;10609061;27;20405;-77
2022/11/01 16:20:04;;;;;;;0.00;0.00;;;;;;;13.40;100.00;101467.34;10611802;27;20075;-77
2022/11/01 16:25:05;;;;;;;0.00;0.00;;;;;;;13.39;100.00;101466.50;10649708;27;20057;-77
2022/11/01 16:30:41;;;;;;;0.00;0.00;;;;;;;13.39;100.00;101471.66;10611025;27;20143;-76
2022/11/01 16:35:44;;;;;;;1.45;0.90;;;;;;;13.13;100.00;101471.00;10568825;28;20048;-76
2022/11/01 16:40:48;;;;;;;0.43;0.43;;;;;;;13.21;100.00;101486.72;10623510;27;20039;-76
2022/11/01 16:45:50;;;;;;;0.10;0.10;;;;;;;13.20;100.00;101491.03;10626464;27;20134;-77
2022/11/01 16:50:53;;;;;;;0.00;0.00;;;;;;;13.11;100.00;101493.38;10608092;27;20100;-77
2022/11/01 16:56:14;;;;;;;0.03;0.03;;;;;;;13.07;100.00;101499.31;10466802;28;20392;-75
2022/11/01 17:01:36;;;;;;;0.28;0.28;;;;;;;12.92;100.00;101504.97;10489257;28;20033;-74
2022/11/01 17:06:38;;;;;;;0.00;0.00;;;;;;;12.50;100.00;101511.59;10490998;28;20044;-74
2022/11/01 17:11:41;;;;;;;0.10;0.10;;;;;;;12.59;100.00;101522.19;10475459;28;20033;-76
2022/11/01 17:16:50;;;;;;;;;;;;;;;12.65;100.00;101537.00;10472193;28;20488;-76
2022/11/01 17:21:53;;;;;;;0.20;0.15;;;;;;;12.61;100.00;101530.00;10483389;28;20395;-76
2022/11/01 17:26:58;;;;;;;0.00;0.00;;;;;;;12.44;100.00;101543.31;10452768;28;20060;-77
2022/11/01 17:32:01;;;;;;;0.98;0.30;;;;;;;12.58;100.00;101535.97;10475834;28;20128;-76
2022/11/01 17:37:03;;;;;;;0.00;0.00;;;;;;;12.45;100.00;101533.88;10490965;28;20465;-76
2022/11/01 17:42:05;;;;;;;0.00;0.00;;;;;;;12.72;100.00;101538.03;10490649;28;20041;-77
2022/11/01 17:47:12;;;;;;;0.03;0.03;;;;;;;12.70;100.00;101530.25;10490463;28;20564;-77
2022/11/01 17:52:14;;;;;;;0.98;0.10;;;;;;;12.75;100.00;101528.66;10487349;28;20464;-76
2022/11/01 17:57:15;;;;;;;0.30;0.28;;;;;;;12.66;100.00;101524.13;10489956;28;20552;-76
2022/11/01 18:02:17;;;;;;;0.00;0.00;;;;;;;12.84;100.00;101528.91;10488419;28;20044;-76
2022/11/01 18:07:20;;;;;;;0.85;0.85;;;;;;;12.74;100.00;101518.28;10461358;28;20489;-76
2022/11/01 18:12:48;;;;;;;0.05;0.05;;;;;;;12.63;100.00;101520.56;10460660;28;20103;-76
2022/11/01 18:18:19;;;;;;;0.43;0.43;;;;;;;12.62;100.00;101504.19;10461434;28;20072;-74
2022/11/01 18:23:21;;;;;;;13.80;0.85;;;;;;;12.66;100.00;101513.78;10399830;28;20048;-76
2022/11/01 18:35:29;;;;;;;1.60;0.57;;;;;;;12.59;100.00;101516.13;10437414;28;20175;-76
2022/11/01 18:46:59;;;;;;;0.00;0.00;;;;;;;12.43;100.00;101509.69;10453689;28;20072;-76
2022/11/01 18:52:00;;;;;;;0.00;0.00;;;;;;;12.38;100.00;101507.84;10459405;28;20385;-76
2022/11/01 18:57:12;;;;;;;0.20;0.00;;;;;;;12.45;100.00;101502.84;10460412;28;20455;-76
2022/11/01 19:08:47;;;;;;;1.42;0.22;;;;;;;12.43;100.00;101520.91;10459861;28;20036;-76
2022/11/01 19:13:49;;;;;;;0.03;0.03;;;;;;;12.35;100.00;101505.19;10459889;28;20500;-75
2022/11/01 19:18:51;;;;;;;0.05;0.00;;;;;;;12.37;100.00;101507.78;10462503;28;20483;-77
2022/11/01 19:23:54;;;;;;;0.55;0.55;;;;;;;12.48;100.00;101513.25;10464442;28;20119;-77
2022/11/01 19:28:56;;;;;;;5.15;0.17;;;;;;;12.41;100.00;101526.84;10432875;28;20048;-75
2022/11/01 19:34:04;;;;;;;0.20;0.20;;;;;;;12.56;100.00;101524.69;10441182;28;20049;-76
2022/11/01 19:39:22;;;;;;;0.00;0.00;;;;;;;12.47;100.00;101524.47;10448788;28;20045;-76
2022/11/01 19:44:25;;;;;;;4.93;1.98;;;;;;;12.47;100.00;101519.28;10416250;28;20440;-75
2022/11/01 19:49:29;;;;;;;0.00;0.00;;;;;;;12.38;100.00;101518.19;10415748;28;20049;-77
2022/11/01 19:55:37;;;;;;;0.00;0.00;;;;;;;12.29;100.00;101527.38;10430254;28;20144;-76
2022/11/01 20:00:38;;;;;;;0.00;0.00;;;;;;;12.27;100.00;101534.22;10456308;28;20053;-76
2022/11/01 20:05:40;;;;;;;0.80;0.40;;;;;;;12.29;100.00;101523.09;10457525;28;20104;-78
2022/11/01 20:17:41;;;;;;;0.13;0.13;;;;;;;12.25;100.00;101518.66;10443194;28;20415;-76
2022/11/01 20:22:44;;;;;;;0.00;0.00;;;;;;;12.19;100.00;101521.97;10456951;28;20075;-76
2022/11/01 20:28:00;;;;;;;0.25;0.03;;;;;;;12.05;100.00;101524.13;10455434;28;20053;-76
2022/11/01 20:33:02;;;;;;;1.92;0.05;;;;;;;12.09;100.00;101519.06;10456736;28;20491;-75
2022/11/01 20:38:04;;;;;;;0.03;0.03;;;;;;;12.06;100.00;101518.13;10455161;28;20060;-76
2022/11/01 20:43:07;;;;;;;0.55;0.40;;;;;;;12.15;100.00;101514.06;10438701;28;20045;-75
2022/11/01 20:48:08;;;;;;;0.47;0.45;;;;;;;11.89;100.00;101511.53;10456391;28;20049;-75
2022/11/01 20:53:10;;;;;;;0.22;0.10;;;;;;;11.97;100.00;101512.69;10438452;28;20087;-76
2022/11/01 20:58:12;;;;;;;0.47;0.10;;;;;;;11.91;100.00;101512.47;10456638;28;20045;-75
2022/11/01 21:03:16;;;;;;;1.65;0.40;;;;;;;11.76;100.00;101515.47;10455017;28;20102;-76
2022/11/01 21:08:25;;;;;;;1.00;0.20;;;;;;;11.77;100.00;101506.88;10456226;28;20052;-76
2022/11/01 21:13:40;;;;;;;0.00;0.00;;;;;;;11.74;100.00;101507.66;10454654;28;20144;-76
2022/11/01 21:18:44;;;;;;;0.00;0.00;;;;;;;11.66;100.00;101522.03;10456117;28;20519;-76
2022/11/01 21:23:46;;;;;;;0.98;0.35;;;;;;;11.68;100.00;101527.25;10454629;28;20435;-76
2022/11/01 21:28:53;;;;;;;0.03;0.03;;;;;;;11.80;100.00;101519.88;10454419;28;20069;-75
2022/11/01 21:33:58;;;;;;;0.45;0.20;;;;;;;11.81;100.00;101505.25;10458825;28;20036;-75
2022/11/01 21:39:08;;;;;;;0.20;0.20;;;;;;;11.93;100.00;101510.81;10465406;28;20427;-75
2022/11/01 21:44:14;;;;;;;0.08;0.08;;;;;;;12.00;100.00;101515.38;10463417;28;20045;-74
2022/11/01 21:49:24;;;;;;;0.00;0.00;;;;;;;12.21;100.00;101506.50;10461998;28;20088;-74
2022/11/01 21:54:28;;;;;;;0.70;0.28;;;;;;;12.33;100.00;101495.63;10463292;28;20037;-77
2022/11/01 21:59:30;;;;;;;0.03;0.03;;;;;;;12.49;100.00;101491.75;10462811;28;20076;-77
2022/11/01 22:04:32;;;;;;;0.10;0.00;;;;;;;12.49;100.00;101491.75;10468082;28;20563;-78
2022/11/01 22:09:34;;;;;;;2.83;0.98;;;;;;;12.81;100.00;101481.41;10480308;28;20045;-76
2022/11/01 22:14:36;;;;;;;0.52;0.32;;;;;;;12.68;100.00;101467.28;10460830;28;20115;-78
2022/11/01 22:19:37;;;;;;;0.08;0.03;;;;;;;12.78;100.00;101461.53;10437087;28;20080;-76
2022/11/01 22:25:07;;;;;;;0.20;0.10;;;;;;;12.92;100.00;101448.06;10461688;28;20033;-78
2022/11/01 22:30:09;;;;;;;0.00;0.00;;;;;;;13.05;100.00;101454.41;10436703;28;20041;-77
2022/11/01 22:35:11;;;;;;;0.52;0.20;;;;;;;13.09;100.00;101440.72;10460115;28;20068;-76
2022/11/01 22:40:13;;;;;;;0.50;0.32;;;;;;;13.10;100.00;101438.19;10461136;28;20049;-77
2022/11/01 22:45:16;;;;;;;0.10;0.03;;;;;;;13.09;100.00;101433.84;10432669;28;20141;-76
2022/11/01 22:50:25;;;;;;;0.00;0.00;;;;;;;13.19;100.00;101422.00;10428239;28;20049;-77
2022/11/01 22:55:28;;;;;;;0.15;0.15;;;;;;;13.23;100.00;101413.44;10442409;28;20049;-75
2022/11/01 23:00:36;;;;;;;0.00;0.00;;;;;;;13.19;100.00;101411.66;10458765;28;20499;-76
2022/11/01 23:05:37;;;;;;;0.70;0.38;;;;;;;13.25;100.00;101411.78;10458681;28;20045;-77
2022/11/01 23:10:48;;;;;;;1.75;0.38;;;;;;;13.21;100.00;101399.63;10459726;28;20072;-76
2022/11/01 23:15:50;;;;;;;0.03;0.03;;;;;;;13.19;100.00;101396.13;10459606;28;20504;-76
2022/11/01 23:20:58;;;;;;;0.00;0.00;;;;;;;13.18;100.00;101390.06;10459314;28;20072;-76
2022/11/01 23:26:03;;;;;;;0.00;0.00;;;;;;;13.18;100.00;101389.19;10459328;28;20083;-77
2022/11/01 23:31:05;;;;;;;0.00;0.00;;;;;;;13.07;100.00;101403.59;10457856;28;20056;-77
2022/11/01 23:36:14;;;;;;;0.00;0.00;;;;;;;13.21;100.00;101388.38;10458673;28;20040;-77
2022/11/01 23:41:26;;;;;;;0.10;0.10;;;;;;;13.08;100.00;101382.03;10457706;28;20045;-78
2022/11/01 23:46:28;;;;;;;0.10;0.10;;;;;;;13.12;100.00;101391.66;10458399;28;20120;-77
2022/11/01 23:51:30;;;;;;;0.00;0.00;;;;;;;13.07;100.00;101380.31;10440444;28;20385;-76
2022/11/01 23:56:31;;;;;;;0.08;0.00;;;;;;;13.00;100.00;101394.81;10456602;28;20045;-76
